Flight Track Log - Related Links

Times and Time Zones

All times are in EST time to prevent confusion due to time zone crossing. See the UPS2332 flight status page for this flight to view local times or setup timezone preferences in your user account.

Time Position Orientation Groundspeed Altitude Reporting Facility
EST Latitude Longitude Course Direction KTS MPH feet Rate Location/Type
Thu 05:17:22 PM 38.1120 -85.7318 181° South 200 230 4,200  Level FlightAware ADS-B
Thu 05:18:21 PM 38.0758 -85.7737 222° Southwest 228 262 6,900 2,950 Climbing FlightAware ADS-B
Thu 05:19:22 PM 38.0758 -85.8560 270° West 230 265 10,100 2,542 Climbing FlightAware ADS-B
Thu 05:20:19 PM 38.0718 -85.9441 267° West 295 339 11,900 2,700 Climbing FlightAware ADS-B
Thu 05:21:22 PM 38.0204 -86.0374 235° Southwest 317 365 15,500 3,421 Climbing FlightAware ADS-B
Thu 05:22:20 PM 37.9709 -86.1204 233° Southwest 331 381 18,800 3,076 Climbing FlightAware ADS-B
Thu 05:23:21 PM 37.9075 -86.2192 231° Southwest 364 419 21,600 2,361 Climbing FlightAware ADS-B
Thu 05:24:22 PM 37.8020 -86.2539 195° South 421 484 23,600 1,881 Climbing FlightAware ADS-B
Thu 05:25:19 PM 37.6868 -86.2781 189° South 447 514 25,300 2,020 Climbing FlightAware ADS-B
Thu 05:26:03 PM 37.5968 -86.2976 190° South 470 541 27,000 2,065 Climbing FlightAware ADS-B
Thu 05:28:25 PM 37.2795 -86.3441 187° South 512 589 31,700 1,925 Climbing FlightAware ADS-B
Thu 05:29:35 PM 37.1175 -86.2884 165° South 520 598 33,800 1,365 Climbing FlightAware ADS-B
Thu 05:31:34 PM 36.8800 -86.2005 164° South 515 593 36,000 759 Climbing FlightAware ADS-B
Thu 05:32:29 PM 36.7198 -86.1526 167° South 515 593 36,000  Level FlightAware ADS-B
Thu 05:33:18 PM 36.6175 -86.1222 167° South 511 588 36,000  Level Indianapolis Center
Thu 05:34:20 PM 36.4767 -86.0783 166° South 511 588 36,000  Level Indianapolis Center
Thu 05:35:23 PM 36.3356 -86.0342 166° South 513 590 36,000  Level Indianapolis Center
Thu 05:36:03 PM 36.2389 -86.0042 166° South 516 594 36,000 353 Level Memphis Center
Thu 05:37:05 PM 36.0961 -85.9606 166° South 518 596 36,600 484 Climbing Memphis Center
Thu 05:38:07 PM 35.9536 -85.9169 166° South 519 597 37,000 194 Climbing Memphis Center
Thu 05:39:09 PM 35.8103 -85.8733 166° South 522 601 37,000  Level Memphis Center
Thu 05:40:11 PM 35.6458 -85.8231 166° South 525 604 37,000  Level Memphis Center
Thu 05:41:13 PM 35.5039 -85.7792 166° South 527 606 37,000  Level Memphis Center
Thu 05:42:15 PM 35.3611 -85.7375 167° South 528 608 37,000  Level Memphis Center
Thu 05:43:17 PM 35.2178 -85.6944 166° South 530 610 37,000  Level Memphis Center
Thu 05:44:19 PM 35.0747 -85.6511 166° South 531 611 37,000  Level Memphis Center
Thu 05:45:29 PM 34.9031 -85.6014 167° South 527 606 37,000  Level Atlanta Center
Thu 05:46:29 PM 34.7617 -85.5608 167° South 527 606 37,000  Level Atlanta Center
Thu 05:47:29 PM 34.6264 -85.5231 167° South 527 606 37,000  Level Atlanta Center
Thu 05:48:29 PM 34.4953 -85.4831 166° South 507 583 37,000  Level Atlanta Center
Thu 05:49:29 PM 34.3664 -85.4431 166° South 479 551 37,000  Level Atlanta Center
Thu 05:50:29 PM 34.2231 -85.4031 167° South 479 551 37,000  Level Atlanta Center
Thu 05:51:29 PM 34.0897 -85.3633 166° South 479 551 37,000  Level Atlanta Center
Thu 05:52:29 PM 33.9503 -85.3261 168° South 497 572 37,000  Level Atlanta Center
Thu 05:53:29 PM 33.8150 -85.2864 166° South 507 583 37,000  Level Atlanta Center
Thu 05:54:29 PM 33.6756 -85.2469 167° South 507 583 37,000  Level Atlanta Center
Thu 05:55:29 PM 33.5403 -85.2053 166° South 507 583 37,000  Level Atlanta Center
Thu 05:56:29 PM 33.4092 -85.1686 167° South 497 572 37,000  Level Atlanta Center
Thu 05:57:29 PM 33.2781 -85.1322 167° South 491 565 37,000  Level Atlanta Center
Thu 05:58:29 PM 33.1511 -85.0933 166° South 481 554 37,000  Level Atlanta Center
Thu 05:59:29 PM 33.0219 -85.0569 167° South 481 554 37,000  Level Atlanta Center
Thu 06:00:29 PM 32.8969 -85.0233 167° South 469 540 37,000  Level Atlanta Center
Thu 06:01:29 PM 32.7700 -84.9800 164° South 469 540 37,000  Level Atlanta Center
Thu 06:02:29 PM 32.6450 -84.9442 166° South 466 536 37,000  Level Atlanta Center
Thu 06:03:29 PM 32.5178 -84.9108 168° South 471 542 37,000  Level Atlanta Center
Thu 06:04:29 PM 32.3886 -84.8753 167° South 471 542 37,000  Level Atlanta Center
Thu 06:05:29 PM 32.2617 -84.8372 166° South 476 548 37,000  Level Atlanta Center
Thu 06:06:29 PM 32.1303 -84.8089 170° South 471 542 37,000  Level Atlanta Center
Thu 06:08:00 PM 31.9503 -84.7533 165° South 477 549 37,000  Level Jacksonville Center
Thu 06:09:00 PM 31.8192 -84.7214 168° South 477 549 37,000  Level Jacksonville Center
Thu 06:14:36 PM 31.0984 -84.4874 168° South 473 544 37,000  Level FlightAware ADS-B (KONZ)
Thu 06:15:45 PM 30.9675 -84.4106 153° Southeast 473 544 37,000  Level FlightAware ADS-B (KONZ)
Thu 06:16:17 PM 30.9014 -84.3725 154° Southeast 471 542 37,000  Level FlightAware ADS-B (KONZ)
Thu 06:17:00 PM 30.8173 -84.3244 154° Southeast 470 541 37,000  Level FlightAware ADS-B (KONZ)
Thu 06:18:14 PM 30.6731 -84.2428 154° Southeast 470 541 37,000  Level FlightAware ADS-B (KONZ)
Thu 06:19:02 PM 30.5785 -84.1892 154° Southeast 469 540 37,000  Level FlightAware ADS-B (KONZ)
Thu 06:19:59 PM 30.4681 -84.1266 154° Southeast 467 537 37,000  Level FlightAware ADS-B (KONZ)
Thu 06:20:51 PM 30.3665 -84.0691 154° Southeast 466 536 37,000  Level FlightAware ADS-B (KONZ)
Thu 06:21:53 PM 30.2640 -84.0114 154° Southeast 464 534 37,000  Level FlightAware ADS-B (KONZ)
Thu 06:22:38 PM 30.1902 -83.9700 154° Southeast 463 533 37,000  Level FlightAware ADS-B (KONZ)
Thu 06:25:10 PM 29.8705 -83.7908 154° Southeast 450 518 37,000  Level FlightAware ADS-B (KONZ)
Thu 06:26:00 PM 29.7856 -83.7444 154° Southeast 458 527 37,000  Level Jacksonville Center
Thu 06:27:00 PM 29.6711 -83.6839 155° Southeast 458 527 37,000  Level Jacksonville Center
Thu 06:28:00 PM 29.5589 -83.6208 154° Southeast 458 527 37,000  Level Jacksonville Center
Thu 06:29:00 PM 29.4444 -83.5578 154° Southeast 458 527 37,000  Level Jacksonville Center
Thu 06:30:00 PM 29.3422 -83.5000 154° Southeast 458 527 37,000  Level Jacksonville Center
Thu 06:35:59 PM 28.6485 -83.1181 154° Southeast 460 529 37,000  Level FlightAware ADS-B
Thu 06:38:23 PM 28.3648 -82.9645 155° Southeast 460 529 37,000  Level FlightAware ADS-B
Thu 06:39:22 PM 28.2506 -82.9029 155° Southeast 461 531 37,000  Level FlightAware ADS-B
Thu 06:41:58 PM 27.9481 -82.7426 155° Southeast 459 528 37,000  Level FlightAware ADS-B
Thu 06:43:30 PM 27.7678 -82.6728 161° South 455 524 37,000  Level FlightAware ADS-B
Thu 06:44:10 PM 27.6923 -82.6446 162° South 455 524 37,000  Level FlightAware ADS-B
Thu 06:44:49 PM 27.6080 -82.6130 162° South 456 525 37,000  Level FlightAware ADS-B
Thu 06:46:27 PM 27.4109 -82.5395 162° South 457 526 37,000  Level FlightAware ADS-B
Thu 06:48:08 PM 27.2081 -82.4633 162° South 461 531 37,000  Level FlightAware ADS-B
Thu 06:48:48 PM 27.1312 -82.4189 153° Southeast 486 559 37,000  Level FlightAware ADS-B
Thu 06:49:24 PM 27.0678 -82.3591 140° Southeast 502 578 37,000 -429 Level FlightAware ADS-B
Thu 06:50:12 PM 26.9873 -82.2744 137° Southeast 491 565 36,400 -1,448 Descending FlightAware ADS-B
Thu 06:50:51 PM 26.9221 -82.2058 137° Southeast 490 564 34,900 -2,079 Descending FlightAware ADS-B
Thu 06:51:53 PM 26.8214 -82.1004 137° Southeast 478 550 32,900 -1,842 Descending FlightAware ADS-B
Thu 06:52:32 PM 26.7575 -82.0340 137° Southeast 479 551 31,800 -1,595 Descending FlightAware ADS-B
Thu 06:53:12 PM 26.6924 -81.9670 137° Southeast 480 552 30,800 -1,500 Descending FlightAware ADS-B
Thu 06:53:52 PM 26.6287 -81.9010 137° Southeast 481 554 29,800 -2,296 Descending FlightAware ADS-B
Thu 06:54:33 PM 26.5645 -81.8293 135° Southeast 497 572 27,700 -2,925 Descending FlightAware ADS-B
Thu 06:55:12 PM 26.5072 -81.7517 130° Southeast 488 562 25,900 -2,113 Descending FlightAware ADS-B
Thu 06:55:44 PM 26.4739 -81.7069 130° Southeast 479 551 25,200 -2,413 Descending Miami Center
Thu 06:56:44 PM 26.3919 -81.5992 130° Southeast 473 544 22,200 -2,750 Descending Miami Center
Thu 06:57:44 PM 26.3117 -81.4986 132° Southeast 455 524 19,700 -2,450 Descending Miami Center
Thu 06:58:44 PM 26.2522 -81.3922 122° Southeast 423 487 17,300 -2,200 Descending Miami Center
Thu 06:59:44 PM 26.2394 -81.2642 96° East 398 458 15,300 -1,900 Descending Miami Center
Thu 07:00:44 PM 26.2033 -81.1494 109° East 398 458 13,500 -2,250 Descending Miami Center
Thu 07:01:44 PM 26.1028 -81.0858 150° Southeast 374 430 10,800 -1,750 Descending Miami Center
Thu 07:02:44 PM 26.0144 -81.0342 152° Southeast 374 430 10,000 -706 Descending Miami Center
Thu 07:02:52 PM 26.0019 -81.0314 169° South 348 400 10,000 -100 Level Miami Center
Thu 07:03:44 PM 25.9444 -80.9969 152° Southeast 345 397 9,900  Descending Miami Center
Thu 07:03:53 PM 25.9239 -80.9894 162° South 271 312 10,000 -200 Climbing Miami Center
Thu 07:04:44 PM 25.8850 -80.9558 142° Southeast 294 338 9,700 -590 Descending Miami Center
Thu 07:04:54 PM 25.8775 -80.9347 112° Southeast 251 289 9,400 -1,200 Descending Miami Center
Thu 07:05:44 PM 25.8642 -80.8811 105° East 236 272 8,500 -1,200 Descending Miami Center
Thu 07:05:49 PM 25.8564 -80.8669 121° Southeast 248 285 8,300 -1,000 Descending Miami Center
Thu 07:06:56 PM 25.8333 -80.7878 108° East 246 283 7,300 -835 Descending Miami Center
Thu 07:07:44 PM 25.8200 -80.7436 109° East 236 272 6,700 -885 Descending Miami Center
Thu 07:07:57 PM 25.8036 -80.7292 142° Southeast 190 219 6,400 -1,100 Descending Miami Center
Thu 07:08:44 PM 25.7875 -80.7033 125° Southeast 208 239 5,600 -1,279 Descending Miami Center
Thu 07:08:58 PM 25.7819 -80.6822 106° East 201 231 5,100 -1,300 Descending Miami Center
Thu 07:09:44 PM 25.7869 -80.6411 82° East 187 215 4,300 -1,180 Descending Miami Center
Thu 07:09:59 PM 25.7856 -80.6203 94° East 203 234 3,900 -800 Descending Miami Center
Thu 07:10:44 PM 25.7908 -80.5789 82° East 187 215 3,500 -627 Descending Miami Center
Thu 07:11:06 PM 25.7872 -80.5533 99° East 193 222 3,200 -390 Descending Miami Center
Thu 07:12:01 PM 25.7906 -80.5050 86° East 173 199 3,000 -362 Descending Miami Center
Thu 07:13:02 PM 25.7919 -80.4497 88° East 176 203 2,500 -703 Descending Miami Center
Thu 07:14:09 PM 25.7953 -80.3919 86° East 162 186 1,500 -836 Descending Miami Center
Thu 07:15:04 PM 25.7964 -80.3553 88° East 124 143 800 -672 Descending Miami Center
Thu 07:16:05 PM 25.7994 -80.3092 86° East 137 158 200 -590 Descending Miami Center
Thu 07:18:00 PM 25.7954 -80.2901 24° Northeast  Level Estimated

Login

Don't have an account? Register now (free) for customized features, flight alerts, and more!